M/V Yankee Clipper — WDC3923 — position and weather

sailwx.info

Track history (hours):
 
Tides and Currents Weather Stations Pressure Air Temp Water Temp Dewpoint Dewpoint Depression Visibility Wind Speed Wind Dir Waves Ship Positions

M/V Yankee Clipper

Owner: M/V Yankee Clipper, Inc., Seattle, WA. More information available from US FCC via Universal Licensing System and Coast Guard Vessel Documentation Center.

Last reported at 2016-Mar-14 13:33 UTC. Time now 2016-May-25 05:21 UTC.
Position N 52°18' W 128°29'.
Warning: this ship's position is months out of date.

Length 27 m; draft 4 m.

Type: Fishing. MMSI: 367016340.

Date/timePositionNaut miles runAvg speedWind from/ knotsBaromVisibWave heightAir tempDewpointWater temp
2016-Mar-14 13:33N 52°18' W 128°29'9 9.3
2016-Mar-14 12:32N 52°14' W 128°15'7 6.8
2016-Mar-14 11:30N 52°08' W 128°08'6 5.5
2016-Mar-14 10:25N 52°05' W 128°00'9 7.9
2016-Mar-14 09:16N 51°56' W 127°57'26 9.4
2016-Mar-14 06:28N 51°30' W 127°51'18 9.0
2016-Mar-14 04:27N 51°12' W 127°50'9 9.5
2016-Mar-14 03:33N 51°05' W 127°42'9 9.5
2016-Mar-14 02:33N 50°58' W 127°31'9 9.1
2016-Mar-14 01:33N 50°53' W 127°19'66 9.2
2016-Mar-13 18:25N 50°23' W 125°47'1411.5
2016-Mar-13 17:14N 50°20' W 125°26'710.3
2016-Mar-13 16:33N 50°14' W 125°23'9 8.7
2016-Mar-13 15:33N 50°06' W 125°17'6 6.5
2016-Mar-13 14:33N 50°00' W 125°12'8 7.6
2016-Mar-13 13:33N 49°54' W 125°04'9 8.6
2016-Mar-13 12:33N 49°48' W 124°55'8 8.4
2016-Mar-13 11:33N 49°43' W 124°45'8 8.1
2016-Mar-13 10:33N 49°37' W 124°36'8 8.4
2016-Mar-13 09:33N 49°31' W 124°27'9 8.9
2016-Mar-13 08:33N 49°25' W 124°17'9 8.6
2016-Mar-13 07:33N 49°21' W 124°05'8 8.2
2016-Mar-13 06:33N 49°17' W 123°54'8 8.2
2016-Mar-13 05:33N 49°13' W 123°43'8 8.2
2016-Mar-13 04:33N 49°08' W 123°33'9 8.5
2016-Mar-13 03:33N 49°02' W 123°24'8 8.5
2016-Mar-13 02:33N 48°56' W 123°15'9 8.8
2016-Mar-13 01:30N 48°51' W 123°03'8 8.4
2016-Mar-13 00:33N 48°48' W 122°52'9 9.3
2016-Mar-12 23:33N 48°41' W 122°43'9 8.6
2016-Mar-12 22:33N 48°32' W 122°45'7 6.9
2016-Mar-12 21:33N 48°25' W 122°45'21 8.8
2016-Mar-12 19:08N 48°04' W 122°38'712.5
2016-Mar-12 18:34N 47°58' W 122°34'1010.2
2016-Mar-12 17:34N 47°49' W 122°26'9 9.3
2016-Mar-12 16:33N 47°40' W 122°24'  
Track history (hours):
 
Tides and Currents Weather Stations Pressure Air Temp Water Temp Dewpoint Dewpoint Depression Visibility Wind Speed Wind Dir Waves Ship Positions

M/V Yankee Clipper

Owner: M/V Yankee Clipper, Inc., Seattle, WA. More information available from US FCC via Universal Licensing System and Coast Guard Vessel Documentation Center.

Last reported at 2016-Mar-14 13:33 UTC. Time now 2016-May-25 05:21 UTC.
Position N 52°18' W 128°29'.
Warning: this ship's position is months out of date.

Length 27 m; draft 4 m.

Type: Fishing. MMSI: 367016340.

Date/timePositionNaut miles runAvg speedWind from/ knotsBaromVisibWave heightAir tempDewpointWater temp
2016-Mar-14 13:33N 52°18' W 128°29'9 9.3
2016-Mar-14 12:32N 52°14' W 128°15'7 6.8
2016-Mar-14 11:30N 52°08' W 128°08'6 5.5
2016-Mar-14 10:25N 52°05' W 128°00'9 7.9
2016-Mar-14 09:16N 51°56' W 127°57'26 9.4
2016-Mar-14 06:28N 51°30' W 127°51'18 9.0
2016-Mar-14 04:27N 51°12' W 127°50'9 9.5
2016-Mar-14 03:33N 51°05' W 127°42'9 9.5
2016-Mar-14 02:33N 50°58' W 127°31'9 9.1
2016-Mar-14 01:33N 50°53' W 127°19'66 9.2
2016-Mar-13 18:25N 50°23' W 125°47'1411.5
2016-Mar-13 17:14N 50°20' W 125°26'710.3
2016-Mar-13 16:33N 50°14' W 125°23'9 8.7
2016-Mar-13 15:33N 50°06' W 125°17'6 6.5
2016-Mar-13 14:33N 50°00' W 125°12'8 7.6
2016-Mar-13 13:33N 49°54' W 125°04'9 8.6
2016-Mar-13 12:33N 49°48' W 124°55'8 8.4
2016-Mar-13 11:33N 49°43' W 124°45'8 8.1
2016-Mar-13 10:33N 49°37' W 124°36'8 8.4
2016-Mar-13 09:33N 49°31' W 124°27'9 8.9
2016-Mar-13 08:33N 49°25' W 124°17'9 8.6
2016-Mar-13 07:33N 49°21' W 124°05'8 8.2
2016-Mar-13 06:33N 49°17' W 123°54'8 8.2
2016-Mar-13 05:33N 49°13' W 123°43'8 8.2
2016-Mar-13 04:33N 49°08' W 123°33'9 8.5
2016-Mar-13 03:33N 49°02' W 123°24'8 8.5
2016-Mar-13 02:33N 48°56' W 123°15'9 8.8
2016-Mar-13 01:30N 48°51' W 123°03'8 8.4
2016-Mar-13 00:33N 48°48' W 122°52'9 9.3
2016-Mar-12 23:33N 48°41' W 122°43'9 8.6
2016-Mar-12 22:33N 48°32' W 122°45'7 6.9
2016-Mar-12 21:33N 48°25' W 122°45'21 8.8
2016-Mar-12 19:08N 48°04' W 122°38'712.5
2016-Mar-12 18:34N 47°58' W 122°34'1010.2
2016-Mar-12 17:34N 47°49' W 122°26'9 9.3
2016-Mar-12 16:33N 47°40' W 122°24'  

Dump ship's entire track history